Time;durP1;ratioP1;P1;durP2;ratioP2;P2;SDS_P1;SDS_P2;PMS_P1;PMS_P2;Temp;Humidity;BMP_temperature;BMP_pressure;BME280_temperature;BME280_humidity;BME280_pressure;Samples;Min_cycle;Max_cycle;Signal;HPM_P1;HPM_P2
2023/06/10 00:01:48;;;;;;;10.85;7.45;;;16.30;99.90;;;;;;5044920;28;20060;-76
2023/06/10 00:04:16;;;;;;;7.47;6.68;;;16.20;99.90;;;;;;5050168;28;20091;-76
2023/06/10 00:06:41;;;;;;;8.50;7.43;;;16.20;99.90;;;;;;5009033;28;20047;-76
2023/06/10 00:09:10;;;;;;;8.70;7.47;;;16.10;99.90;;;;;;5044766;28;20390;-77
2023/06/10 00:11:37;;;;;;;8.90;7.32;;;16.10;99.90;;;;;;5040741;28;20037;-77
2023/06/10 00:14:03;;;;;;;7.97;7.18;;;16.00;99.90;;;;;;5043309;28;20033;-76
2023/06/10 00:16:29;;;;;;;8.65;7.13;;;15.90;99.90;;;;;;5044559;28;20033;-76
2023/06/10 00:19:01;;;;;;;9.23;7.32;;;15.90;99.90;;;;;;5047205;28;20021;-76
2023/06/10 00:21:39;;;;;;;9.65;7.03;;;15.80;99.90;;;;;;5028851;28;20044;-76
2023/06/10 00:24:06;;;;;;;10.75;8.13;;;15.80;99.90;;;;;;5034559;28;20029;-76
2023/06/10 00:26:33;;;;;;;9.23;8.15;;;15.70;99.90;;;;;;5047376;28;20033;-76
2023/06/10 00:28:59;;;;;;;12.80;7.28;;;15.60;99.90;;;;;;5047297;28;20029;-75
2023/06/10 00:31:26;;;;;;;8.38;7.10;;;15.50;99.90;;;;;;5042222;28;20477;-76
2023/06/10 00:33:52;;;;;;;8.38;7.30;;;15.60;99.90;;;;;;5045657;28;20083;-76
2023/06/10 00:36:17;;;;;;;9.07;7.47;;;15.60;99.90;;;;;;5045544;28;20052;-76
2023/06/10 00:38:43;;;;;;;9.00;7.20;;;15.50;99.90;;;;;;5050411;28;20029;-76
2023/06/10 00:41:09;;;;;;;8.30;7.18;;;15.50;99.90;;;;;;5050760;28;20041;-76
2023/06/10 00:43:35;;;;;;;7.70;6.90;;;15.60;99.90;;;;;;5050661;28;20055;-75
2023/06/10 00:46:00;;;;;;;10.07;7.68;;;15.50;99.90;;;;;;5050630;28;20054;-76
2023/06/10 00:48:27;;;;;;;8.00;7.20;;;15.60;99.90;;;;;;5029363;28;20025;-75
2023/06/10 00:50:53;;;;;;;10.88;7.80;;;15.60;99.90;;;;;;5048033;28;20060;-76
2023/06/10 00:53:20;;;;;;;10.68;6.80;;;15.70;99.90;;;;;;5053184;28;20108;-76
2023/06/10 00:55:46;;;;;;;11.93;7.53;;;15.60;99.90;;;;;;5032368;28;20770;-76
2023/06/10 00:58:12;;;;;;;9.88;7.45;;;15.50;99.90;;;;;;5049172;28;20068;-75
2023/06/10 01:00:38;;;;;;;8.90;7.20;;;15.30;99.90;;;;;;5042975;28;20038;-75
2023/06/10 01:03:07;;;;;;;10.32;7.32;;;15.30;99.90;;;;;;5029646;28;20091;-75
2023/06/10 01:05:34;;;;;;;10.93;7.47;;;15.30;99.90;;;;;;5051813;28;20025;-76
2023/06/10 01:08:20;;;;;;;10.27;7.57;;;15.20;99.90;;;;;;5053818;28;20400;-75
2023/06/10 01:10:55;;;;;;;9.48;7.32;;;15.20;99.90;;;;;;5050462;28;20397;-75
2023/06/10 01:13:23;;;;;;;8.30;7.50;;;15.20;99.90;;;;;;5047611;28;20037;-75
2023/06/10 01:15:51;;;;;;;9.50;7.22;;;15.30;99.90;;;;;;5053803;28;20082;-76
2023/06/10 01:18:17;;;;;;;10.88;8.20;;;15.30;99.90;;;;;;5036229;28;20825;-75
2023/06/10 01:20:44;;;;;;;14.68;8.23;;;15.30;99.90;;;;;;5047121;28;20116;-76
2023/06/10 01:23:11;;;;;;;9.10;8.07;;;15.10;99.90;;;;;;5046547;28;20044;-76
2023/06/10 01:25:40;;;;;;;8.45;7.13;;;15.00;99.90;;;;;;5032871;28;20093;-76
2023/06/10 01:28:11;;;;;;;10.40;7.15;;;14.90;99.90;;;;;;5052219;28;20327;-76
2023/06/10 01:30:41;;;;;;;11.35;8.35;;;15.00;99.90;;;;;;5043982;28;20025;-76
2023/06/10 01:33:09;;;;;;;9.18;6.75;;;15.00;99.90;;;;;;5035312;28;21266;-76
2023/06/10 01:35:37;;;;;;;8.38;7.35;;;14.90;99.90;;;;;;5045697;28;20074;-76
2023/06/10 01:38:03;;;;;;;8.32;6.93;;;14.90;99.90;;;;;;5052858;28;20716;-77
2023/06/10 01:40:30;;;;;;;11.07;7.97;;;15.00;99.90;;;;;;5049609;28;20045;-76
2023/06/10 01:42:55;;;;;;;8.15;7.20;;;15.10;99.90;;;;;;5049739;28;20032;-76
2023/06/10 01:45:21;;;;;;;10.05;7.57;;;15.10;99.90;;;;;;5050562;28;20481;-75
2023/06/10 01:47:47;;;;;;;8.43;7.43;;;15.00;99.90;;;;;;5054454;28;20066;-75
2023/06/10 01:50:12;;;;;;;10.77;7.25;;;14.90;99.90;;;;;;5035187;28;20032;-76
2023/06/10 01:52:38;;;;;;;9.07;7.00;;;15.00;99.90;;;;;;5046374;28;20052;-76
2023/06/10 01:55:04;;;;;;;10.68;7.13;;;15.00;99.90;;;;;;5053895;28;20021;-75
2023/06/10 01:57:30;;;;;;;10.00;7.35;;;15.00;99.90;;;;;;5031211;28;20040;-75
2023/06/10 01:59:55;;;;;;;9.32;8.00;;;14.90;99.90;;;;;;5052103;28;20100;-76
2023/06/10 02:02:22;;;;;;;8.80;7.68;;;14.90;99.90;;;;;;5047179;28;20090;-76
2023/06/10 02:04:47;;;;;;;9.52;7.15;;;14.90;99.90;;;;;;5037991;28;20125;-75
2023/06/10 02:07:13;;;;;;;9.70;7.28;;;14.80;99.90;;;;;;5050906;28;20060;-75
2023/06/10 02:09:39;;;;;;;8.55;7.30;;;14.80;99.90;;;;;;5052542;28;20035;-75
2023/06/10 02:12:06;;;;;;;9.55;7.32;;;14.80;99.90;;;;;;5047153;28;20506;-75
2023/06/10 02:14:33;;;;;;;12.50;7.45;;;14.90;99.90;;;;;;5051724;28;20064;-75
2023/06/10 02:16:58;;;;;;;9.73;7.13;;;15.00;99.90;;;;;;5043078;28;20040;-75
2023/06/10 02:19:26;;;;;;;9.95;6.93;;;15.00;99.90;;;;;;5054782;28;20021;-76
2023/06/10 02:21:52;;;;;;;10.30;8.02;;;15.00;99.90;;;;;;5047523;28;20048;-76
2023/06/10 02:24:18;;;;;;;7.90;6.68;;;15.00;99.90;;;;;;5051471;28;20405;-76
2023/06/10 02:26:44;;;;;;;9.93;7.22;;;14.90;99.90;;;;;;5048709;28;20137;-79
2023/06/10 02:29:09;;;;;;;9.35;7.35;;;15.00;99.90;;;;;;5050779;28;20029;-76
2023/06/10 02:31:35;;;;;;;8.73;6.65;;;15.00;99.90;;;;;;5043315;28;20050;-77
2023/06/10 02:34:01;;;;;;;9.48;6.55;;;15.00;99.90;;;;;;5030963;28;20069;-75
2023/06/10 02:36:27;;;;;;;9.07;6.82;;;15.00;99.90;;;;;;5048018;28;20144;-75
2023/06/10 02:38:53;;;;;;;9.50;7.28;;;15.00;99.90;;;;;;5048799;28;20029;-76
2023/06/10 02:41:19;;;;;;;9.85;7.57;;;14.90;99.90;;;;;;5044457;28;20551;-76
2023/06/10 02:43:44;;;;;;;9.07;7.47;;;14.80;99.90;;;;;;5050206;28;20033;-76
2023/06/10 02:46:10;;;;;;;10.13;7.60;;;14.80;99.90;;;;;;5051526;28;20064;-75
2023/06/10 02:48:45;;;;;;;7.95;6.90;;;14.70;99.90;;;;;;5052744;28;20032;-75
2023/06/10 02:51:11;;;;;;;9.48;7.20;;;14.60;99.90;;;;;;5035745;28;20037;-76
2023/06/10 02:53:37;;;;;;;9.00;6.80;;;14.50;99.90;;;;;;5049207;28;20080;-77
2023/06/10 02:56:03;;;;;;;8.07;6.72;;;14.50;99.90;;;;;;5047530;28;20486;-76
2023/06/10 02:58:28;;;;;;;8.73;7.50;;;14.50;99.90;;;;;;5051630;28;20041;-75
2023/06/10 03:00:54;;;;;;;8.70;6.65;;;14.50;99.90;;;;;;5050542;28;20832;-75
2023/06/10 03:03:22;;;;;;;8.75;6.75;;;14.50;99.90;;;;;;5040137;28;20037;-76
2023/06/10 03:05:48;;;;;;;10.57;7.05;;;14.60;99.90;;;;;;5046770;28;20472;-75
2023/06/10 03:08:13;;;;;;;10.38;7.43;;;14.50;99.90;;;;;;5051291;28;20036;-76
2023/06/10 03:10:39;;;;;;;9.63;7.07;;;14.70;99.90;;;;;;5047353;28;20033;-76
2023/06/10 03:13:04;;;;;;;10.18;6.78;;;14.80;99.90;;;;;;5045047;28;20028;-75
2023/06/10 03:15:32;;;;;;;8.27;6.40;;;14.90;99.90;;;;;;5049768;28;20034;-76
2023/06/10 03:18:00;;;;;;;9.82;6.90;;;14.90;99.90;;;;;;5049057;28;20033;-76
2023/06/10 03:20:27;;;;;;;10.10;6.70;;;14.80;99.90;;;;;;5049078;28;20041;-77
2023/06/10 03:22:53;;;;;;;9.43;7.00;;;14.80;99.90;;;;;;5044085;28;20055;-76
2023/06/10 03:25:20;;;;;;;8.43;7.18;;;14.70;99.90;;;;;;5046946;28;20069;-75
2023/06/10 03:27:46;;;;;;;11.15;7.50;;;14.60;99.90;;;;;;5051445;28;20052;-75
2023/06/10 03:30:13;;;;;;;10.57;7.60;;;14.60;99.90;;;;;;5045857;28;20614;-76
2023/06/10 03:32:40;;;;;;;9.13;7.05;;;14.50;99.90;;;;;;5046131;28;20037;-76
2023/06/10 03:35:07;;;;;;;10.57;7.43;;;14.50;99.90;;;;;;5043040;28;20167;-76
2023/06/10 03:37:32;;;;;;;10.23;7.53;;;14.40;99.90;;;;;;5047506;28;20021;-75
2023/06/10 03:39:58;;;;;;;12.10;7.72;;;14.50;99.90;;;;;;5045938;28;20073;-76
2023/06/10 03:42:24;;;;;;;10.18;7.45;;;14.60;99.90;;;;;;5045144;28;21617;-75
2023/06/10 03:44:50;;;;;;;11.48;7.63;;;14.60;99.90;;;;;;5054020;28;20056;-75
2023/06/10 03:47:16;;;;;;;10.50;7.65;;;14.60;99.90;;;;;;5047072;28;20034;-76
2023/06/10 03:49:41;;;;;;;8.50;6.80;;;14.60;99.90;;;;;;5044938;28;20052;-76
2023/06/10 03:52:07;;;;;;;7.78;6.85;;;14.60;99.90;;;;;;5044978;28;20486;-76
2023/06/10 03:54:34;;;;;;;10.60;7.38;;;14.70;99.90;;;;;;5048179;28;20040;-74
2023/06/10 03:57:01;;;;;;;9.68;7.40;;;14.70;99.90;;;;;;5048879;28;20026;-76
2023/06/10 03:59:26;;;;;;;8.73;6.80;;;14.70;99.90;;;;;;5051876;28;20033;-75
2023/06/10 04:01:52;;;;;;;10.65;7.25;;;14.70;99.90;;;;;;5049003;28;20045;-75
2023/06/10 04:04:17;;;;;;;9.00;7.38;;;14.70;99.90;;;;;;5060870;28;20029;-76
2023/06/10 04:06:44;;;;;;;10.40;7.13;;;14.60;99.90;;;;;;5044657;28;20443;-76
2023/06/10 04:09:10;;;;;;;9.98;7.07;;;14.70;99.90;;;;;;5052712;28;20068;-77
2023/06/10 04:11:36;;;;;;;10.23;7.45;;;14.70;99.90;;;;;;5051605;28;20028;-75
2023/06/10 04:14:02;;;;;;;11.43;7.28;;;14.60;99.90;;;;;;5043058;28;20098;-77
2023/06/10 04:16:28;;;;;;;10.57;7.20;;;14.60;99.90;;;;;;5049061;28;20402;-76
2023/06/10 04:18:54;;;;;;;8.60;6.82;;;14.50;99.90;;;;;;5053019;28;20025;-78
2023/06/10 04:21:21;;;;;;;10.35;7.25;;;14.40;99.90;;;;;;5046238;28;20042;-75
2023/06/10 04:23:47;;;;;;;9.95;7.80;;;14.40;99.90;;;;;;5050469;28;20086;-76
2023/06/10 04:26:13;;;;;;;9.63;7.82;;;14.50;99.90;;;;;;5043631;28;20036;-76
2023/06/10 04:28:38;;;;;;;9.88;6.88;;;14.60;99.90;;;;;;5054181;28;20036;-76
2023/06/10 04:31:04;;;;;;;10.68;7.57;;;14.60;99.90;;;;;;5050422;28;20049;-75
2023/06/10 04:33:31;;;;;;;10.43;7.20;;;14.70;99.90;;;;;;5046538;28;20037;-76
2023/06/10 04:35:57;;;;;;;10.63;7.90;;;14.80;99.90;;;;;;5028254;28;20026;-75
2023/06/10 04:38:23;;;;;;;9.68;7.25;;;14.90;99.90;;;;;;5053557;28;20048;-76
2023/06/10 04:40:49;;;;;;;10.68;8.10;;;14.90;99.90;;;;;;5013613;28;20037;-76
2023/06/10 04:43:14;;;;;;;9.60;7.18;;;15.10;99.90;;;;;;5054166;28;20037;-76
2023/06/10 04:45:40;;;;;;;10.60;7.75;;;15.30;99.90;;;;;;5048341;28;20037;-75
2023/06/10 04:48:07;;;;;;;10.68;8.25;;;15.30;99.90;;;;;;5049421;28;20056;-77
2023/06/10 04:50:33;;;;;;;10.43;8.05;;;15.30;99.90;;;;;;5035270;28;20029;-75
2023/06/10 04:53:02;;;;;;;11.00;8.18;;;15.40;99.90;;;;;;5050787;28;20055;-75
2023/06/10 04:55:27;;;;;;;11.52;8.25;;;15.50;99.90;;;;;;5034437;28;20056;-75
2023/06/10 04:57:53;;;;;;;10.38;8.48;;;15.60;99.90;;;;;;5053356;28;20028;-75
2023/06/10 05:00:19;;;;;;;12.70;7.63;;;15.70;99.90;;;;;;5045504;28;20072;-76
2023/06/10 05:02:45;;;;;;;11.70;8.10;;;15.70;99.90;;;;;;5045878;28;20045;-76
2023/06/10 05:05:10;;;;;;;9.88;7.97;;;15.80;99.90;;;;;;5048307;28;20039;-76
2023/06/10 05:07:36;;;;;;;12.65;8.15;;;15.90;99.90;;;;;;5044443;28;20388;-75
2023/06/10 05:10:03;;;;;;;10.73;8.38;;;16.00;99.90;;;;;;5050305;28;20108;-75
2023/06/10 05:12:28;;;;;;;10.98;8.25;;;16.10;99.90;;;;;;5048521;28;20033;-76
2023/06/10 05:14:54;;;;;;;13.70;8.70;;;16.20;99.90;;;;;;5055467;28;20048;-76
2023/06/10 05:17:20;;;;;;;9.70;7.60;;;16.30;99.90;;;;;;5035743;28;20507;-76
2023/06/10 05:19:47;;;;;;;11.63;8.15;;;16.40;99.90;;;;;;5052868;28;20052;-76
2023/06/10 05:22:13;;;;;;;11.80;8.32;;;16.50;99.90;;;;;;5046326;28;20048;-76
2023/06/10 05:24:39;;;;;;;12.27;8.45;;;16.40;99.90;;;;;;5051489;28;20030;-77
2023/06/10 05:27:06;;;;;;;12.98;8.27;;;16.50;99.90;;;;;;5045667;28;20040;-76
2023/06/10 05:29:33;;;;;;;13.02;8.10;;;16.60;99.90;;;;;;5055898;28;20025;-76
2023/06/10 05:32:02;;;;;;;11.35;7.90;;;16.70;99.90;;;;;;5036816;28;20041;-76
2023/06/10 05:34:31;;;;;;;11.02;7.20;;;16.80;99.90;;;;;;5054944;28;20451;-76
2023/06/10 05:36:57;;;;;;;12.38;7.97;;;16.90;99.90;;;;;;5037336;28;20025;-76
2023/06/10 05:39:23;;;;;;;10.57;8.02;;;17.00;99.90;;;;;;5056241;28;20048;-76
2023/06/10 05:41:48;;;;;;;11.90;8.07;;;17.10;99.90;;;;;;5048765;28;20068;-76
2023/06/10 05:44:17;;;;;;;9.60;7.53;;;17.20;99.90;;;;;;5054062;28;20120;-76
2023/06/10 05:46:43;;;;;;;11.57;7.63;;;17.40;99.90;;;;;;5049806;28;20037;-75
2023/06/10 05:49:08;;;;;;;8.65;7.00;;;17.60;99.90;;;;;;5050949;28;20052;-76
2023/06/10 05:51:34;;;;;;;11.10;7.43;;;17.60;99.90;;;;;;5047514;28;20052;-76
2023/06/10 05:54:00;;;;;;;11.00;7.45;;;17.80;99.90;;;;;;5055996;28;20029;-77
2023/06/10 05:56:26;;;;;;;10.07;7.25;;;17.80;99.90;;;;;;5055078;28;20303;-76
2023/06/10 05:58:52;;;;;;;8.45;6.38;;;17.80;99.90;;;;;;5050789;28;20061;-75
2023/06/10 06:01:17;;;;;;;10.27;7.15;;;17.90;99.90;;;;;;5030656;28;20061;-77
2023/06/10 06:03:43;;;;;;;9.23;6.85;;;18.00;99.90;;;;;;5037183;28;20056;-77
2023/06/10 06:06:09;;;;;;;9.25;7.40;;;18.10;99.90;;;;;;5049309;28;20037;-76
2023/06/10 06:08:35;;;;;;;8.75;7.00;;;18.20;99.90;;;;;;5053107;28;20165;-76
2023/06/10 06:11:00;;;;;;;8.90;6.93;;;18.30;99.90;;;;;;5051717;28;20052;-76
2023/06/10 06:13:26;;;;;;;10.25;7.18;;;18.40;99.90;;;;;;5053059;28;20064;-76
2023/06/10 06:15:52;;;;;;;10.30;8.02;;;18.40;99.90;;;;;;5051660;28;20550;-76
2023/06/10 06:18:18;;;;;;;10.20;7.22;;;18.60;99.90;;;;;;5033325;28;20021;-76
2023/06/10 06:20:44;;;;;;;9.07;7.15;;;18.50;99.90;;;;;;5050519;28;20037;-76
2023/06/10 06:23:10;;;;;;;9.20;7.28;;;18.60;99.90;;;;;;5053306;28;20343;-76
2023/06/10 06:25:38;;;;;;;9.60;7.28;;;18.70;99.90;;;;;;5049784;28;20026;-76
2023/06/10 06:28:10;;;;;;;9.50;7.45;;;18.70;99.90;;;;;;5052934;28;20043;-76
2023/06/10 06:30:36;;;;;;;9.07;7.05;;;18.90;99.90;;;;;;5046127;28;20413;-76
2023/06/10 06:33:02;;;;;;;9.02;7.00;;;19.00;99.90;;;;;;5053064;28;20033;-76
2023/06/10 06:35:31;;;;;;;9.10;7.20;;;19.00;99.90;;;;;;5050179;28;20032;-75
2023/06/10 06:37:58;;;;;;;10.25;7.75;;;19.10;99.90;;;;;;5049556;28;20094;-76
2023/06/10 06:40:24;;;;;;;9.90;7.65;;;19.20;99.90;;;;;;5055315;28;20441;-76
2023/06/10 06:42:50;;;;;;;8.13;6.80;;;19.30;99.90;;;;;;5052745;28;20040;-76
2023/06/10 06:45:15;;;;;;;8.82;7.25;;;19.50;99.90;;;;;;5054937;28;20041;-76
2023/06/10 06:47:41;;;;;;;9.77;7.35;;;19.50;99.90;;;;;;5056402;28;20513;-77
2023/06/10 06:50:07;;;;;;;9.43;6.95;;;19.70;99.90;;;;;;5053450;28;20512;-77
2023/06/10 06:52:32;;;;;;;10.00;7.30;;;19.70;99.90;;;;;;5053411;28;20045;-76
2023/06/10 06:54:58;;;;;;;10.70;6.88;;;20.00;99.90;;;;;;5053679;28;20025;-76
2023/06/10 06:57:24;;;;;;;11.23;7.45;;;20.00;99.90;;;;;;5047792;28;20092;-76
2023/06/10 06:59:49;;;;;;;7.63;6.65;;;20.00;99.90;;;;;;5053684;28;20041;-76
2023/06/10 07:02:15;;;;;;;7.82;6.22;;;20.10;99.90;;;;;;5047019;28;20037;-76
2023/06/10 07:04:41;;;;;;;8.35;6.50;;;20.00;99.90;;;;;;5050639;28;20132;-76
2023/06/10 07:07:10;;;;;;;8.88;6.18;;;20.10;99.90;;;;;;5046425;28;20029;-76
2023/06/10 07:09:37;;;;;;;8.77;6.28;;;20.20;99.90;;;;;;5055162;28;20040;-76
2023/06/10 07:12:03;;;;;;;6.85;5.65;;;20.30;99.90;;;;;;5032526;28;20159;-76
2023/06/10 07:14:29;;;;;;;7.75;6.10;;;20.40;99.90;;;;;;5050460;28;20060;-75
2023/06/10 07:16:55;;;;;;;6.45;5.55;;;20.60;99.90;;;;;;5026842;28;20675;-76
2023/06/10 07:19:20;;;;;;;7.63;5.55;;;20.50;99.90;;;;;;5047685;28;20039;-76
2023/06/10 07:21:46;;;;;;;7.78;6.03;;;20.50;99.90;;;;;;5049000;28;20545;-75
2023/06/10 07:24:12;;;;;;;7.72;6.40;;;20.50;99.90;;;;;;5053498;28;20042;-76
2023/06/10 07:26:37;;;;;;;7.28;6.00;;;20.60;99.90;;;;;;5044548;28;20105;-76
2023/06/10 07:29:03;;;;;;;7.40;5.53;;;20.50;99.90;;;;;;5047456;28;20029;-75
2023/06/10 07:31:28;;;;;;;9.02;6.15;;;20.60;99.90;;;;;;5045236;28;20078;-76
2023/06/10 07:33:54;;;;;;;7.22;6.07;;;20.70;99.90;;;;;;5049872;28;20033;-76
2023/06/10 07:36:20;;;;;;;6.95;5.97;;;20.80;99.90;;;;;;5046927;28;20108;-79
2023/06/10 07:38:45;;;;;;;8.20;5.35;;;20.90;99.90;;;;;;5045275;28;20025;-76
2023/06/10 07:41:11;;;;;;;6.70;5.55;;;21.00;99.90;;;;;;5044631;28;20049;-76
2023/06/10 07:43:38;;;;;;;6.25;5.65;;;21.00;99.90;;;;;;5050041;28;20033;-76
2023/06/10 07:46:05;;;;;;;6.47;5.60;;;21.10;99.90;;;;;;5031356;28;20029;-76
2023/06/10 07:48:31;;;;;;;6.97;6.00;;;21.30;99.90;;;;;;5054312;28;20056;-77
2023/06/10 07:50:57;;;;;;;7.47;6.22;;;21.30;99.90;;;;;;5052732;28;20805;-76
2023/06/10 07:53:22;;;;;;;8.25;6.65;;;21.40;99.90;;;;;;5046896;28;20113;-76
2023/06/10 07:55:48;;;;;;;6.40;5.70;;;21.40;99.90;;;;;;5050124;28;20028;-76
2023/06/10 07:58:17;;;;;;;6.15;5.45;;;21.30;99.90;;;;;;5053133;28;20120;-76
2023/06/10 08:00:43;;;;;;;6.47;5.68;;;21.40;99.90;;;;;;5054658;28;20051;-75
2023/06/10 08:03:08;;;;;;;6.60;5.90;;;21.70;99.90;;;;;;5044894;28;20132;-77
2023/06/10 08:05:34;;;;;;;6.63;5.72;;;21.90;99.90;;;;;;5051590;28;20029;-75
2023/06/10 08:08:00;;;;;;;12.75;6.07;;;21.80;99.90;;;;;;5046441;28;20258;-76
2023/06/10 08:10:26;;;;;;;6.88;5.97;;;21.90;99.90;;;;;;5050006;28;20898;-75
2023/06/10 08:12:54;;;;;;;8.10;6.10;;;22.10;99.90;;;;;;5053182;28;20436;-75
2023/06/10 08:15:20;;;;;;;6.57;5.75;;;22.10;99.90;;;;;;5048044;28;20039;-76
2023/06/10 08:17:45;;;;;;;7.13;5.70;;;22.00;99.90;;;;;;5042909;28;20143;-76
2023/06/10 08:20:11;;;;;;;7.93;5.70;;;22.10;99.90;;;;;;5044044;28;20121;-75
2023/06/10 08:22:36;;;;;;;5.97;5.10;;;22.20;99.90;;;;;;5049312;28;20036;-76
2023/06/10 08:25:02;;;;;;;5.53;4.78;;;22.10;99.90;;;;;;5050011;28;20045;-77
2023/06/10 08:27:28;;;;;;;5.97;5.13;;;22.10;99.90;;;;;;5050970;28;20035;-76
2023/06/10 08:29:54;;;;;;;6.88;5.63;;;22.30;99.90;;;;;;5049571;28;20036;-75
2023/06/10 08:32:19;;;;;;;6.75;5.22;;;22.30;99.90;;;;;;5046016;28;20041;-76
2023/06/10 08:34:45;;;;;;;5.70;4.88;;;22.30;99.90;;;;;;5029594;28;20021;-76
2023/06/10 08:37:11;;;;;;;12.52;6.15;;;22.30;99.90;;;;;;5048442;28;20480;-76
2023/06/10 08:39:36;;;;;;;5.85;5.22;;;22.60;99.90;;;;;;5045248;28;20107;-76
2023/06/10 08:42:21;;;;;;;5.25;4.75;;;22.70;99.90;;;;;;5047056;28;20044;-76
2023/06/10 08:44:48;;;;;;;5.35;4.18;;;22.60;99.90;;;;;;5053854;28;20032;-76
2023/06/10 08:47:16;;;;;;;5.80;5.20;;;22.80;99.90;;;;;;5049429;28;20037;-75
2023/06/10 08:49:47;;;;;;;6.05;5.45;;;22.80;99.90;;;;;;5052830;28;20029;-76
2023/06/10 08:52:18;;;;;;;6.10;5.50;;;22.40;99.90;;;;;;5046345;28;20060;-76
2023/06/10 08:54:52;;;;;;;6.47;5.43;;;22.40;99.90;;;;;;5049552;28;20523;-76
2023/06/10 08:57:20;;;;;;;6.63;5.55;;;22.30;99.90;;;;;;5050436;28;20040;-76
2023/06/10 08:59:46;;;;;;;7.00;5.85;;;22.60;99.90;;;;;;5054012;28;20032;-76
2023/06/10 09:02:14;;;;;;;7.20;5.97;;;22.70;99.90;;;;;;5051555;28;20405;-76
2023/06/10 09:04:43;;;;;;;6.30;5.03;;;22.80;99.90;;;;;;5052383;28;20361;-75
2023/06/10 09:07:10;;;;;;;5.85;5.22;;;22.80;99.90;;;;;;5029356;28;20329;-76
2023/06/10 09:09:36;;;;;;;6.70;6.00;;;22.50;99.90;;;;;;5032353;28;20067;-77
2023/06/10 09:12:03;;;;;;;6.80;5.60;;;22.40;99.90;;;;;;5046401;28;20040;-76
2023/06/10 09:14:32;;;;;;;5.93;5.32;;;22.60;99.90;;;;;;5047746;28;20037;-75
2023/06/10 09:16:58;;;;;;;6.07;5.47;;;22.80;99.90;;;;;;5047834;28;20034;-75
2023/06/10 09:19:40;;;;;;;6.47;5.55;;;22.20;99.90;;;;;;5038663;28;20048;-75
2023/06/10 09:22:06;;;;;;;6.38;5.30;;;21.80;99.90;;;;;;5052926;28;20590;-75
2023/06/10 09:24:32;;;;;;;5.50;5.00;;;21.70;99.90;;;;;;5049407;28;20033;-76
2023/06/10 09:27:08;;;;;;;5.88;5.28;;;21.80;99.90;;;;;;5049560;28;20030;-76
2023/06/10 09:29:50;;;;;;;6.32;5.15;;;21.90;99.90;;;;;;5024856;28;20558;-76
2023/06/10 09:32:18;;;;;;;8.05;5.55;;;22.30;99.90;;;;;;5034628;28;20052;-76
2023/06/10 09:34:44;;;;;;;7.28;5.47;;;22.50;99.90;;;;;;5053117;28;20036;-77
2023/06/10 09:37:12;;;;;;;5.60;4.72;;;22.80;99.90;;;;;;5048971;28;20033;-75
2023/06/10 09:39:37;;;;;;;6.65;5.95;;;23.20;99.90;;;;;;5051020;28;20032;-77
2023/06/10 09:42:16;;;;;;;5.82;5.22;;;23.00;99.90;;;;;;5046695;28;20412;-76
2023/06/10 09:44:42;;;;;;;5.95;5.35;;;22.50;99.90;;;;;;5043536;28;20028;-76
2023/06/10 09:47:08;;;;;;;6.00;5.38;;;22.40;99.90;;;;;;5051555;28;20402;-76
2023/06/10 09:49:37;;;;;;;5.63;4.97;;;22.40;99.90;;;;;;5047382;28;20029;-77
2023/06/10 09:52:05;;;;;;;5.38;4.88;;;22.80;99.90;;;;;;5050186;28;20119;-77
2023/06/10 09:54:31;;;;;;;;;;;23.20;99.90;;;;;;5029446;28;20025;-77
2023/06/10 09:56:59;;;;;;;5.38;4.88;;;23.50;99.90;;;;;;5051465;28;20008;-76
2023/06/10 09:59:29;;;;;;;;;;;23.50;99.90;;;;;;5052821;28;20110;-76
2023/06/10 10:01:55;;;;;;;5.63;4.57;;;23.50;99.90;;;;;;5050089;28;20372;-78
2023/06/10 10:04:28;;;;;;;4.65;4.25;;;23.50;99.90;;;;;;5053627;28;20030;-78
2023/06/10 10:06:54;;;;;;;5.35;4.85;;;23.50;99.90;;;;;;5054428;28;20037;-78
2023/06/10 10:09:19;;;;;;;5.10;4.60;;;23.50;99.90;;;;;;5054929;28;20422;-78
2023/06/10 10:11:47;;;;;;;5.70;4.72;;;22.90;99.90;;;;;;5059350;28;20469;-77
2023/06/10 10:14:15;;;;;;;5.85;4.90;;;22.30;99.90;;;;;;5059265;28;20029;-78
2023/06/10 10:16:42;;;;;;;99.07;10.52;;;22.00;99.90;;;;;;5052965;28;20037;-77
2023/06/10 10:19:15;;;;;;;5.03;4.53;;;21.80;99.90;;;;;;5062907;28;20033;-78
2023/06/10 10:21:57;;;;;;;5.28;4.78;;;22.40;99.90;;;;;;5049177;28;20041;-77
2023/06/10 10:24:37;;;;;;;4.78;4.28;;;23.10;99.90;;;;;;5048678;28;20038;-75
2023/06/10 10:27:14;;;;;;;4.93;4.50;;;23.60;99.90;;;;;;5056760;28;20036;-75
2023/06/10 10:29:41;;;;;;;4.90;4.40;;;23.60;99.90;;;;;;5051026;28;20534;-76
2023/06/10 10:32:11;;;;;;;6.07;5.20;;;23.60;99.90;;;;;;5054684;28;20040;-79
2023/06/10 10:35:07;;;;;;;5.28;4.78;;;23.50;99.90;;;;;;5052826;28;20028;-76
2023/06/10 10:37:33;;;;;;;5.72;5.00;;;23.40;99.90;;;;;;5047872;28;20307;-76
2023/06/10 10:40:00;;;;;;;7.97;5.70;;;23.10;99.90;;;;;;5049202;28;20052;-76
2023/06/10 10:42:27;;;;;;;6.45;5.75;;;22.70;99.90;;;;;;5049755;28;20025;-75
2023/06/10 10:44:53;;;;;;;6.45;5.80;;;22.10;99.90;;;;;;5052002;28;20025;-75
2023/06/10 10:47:22;;;;;;;6.93;5.93;;;22.00;99.90;;;;;;5057435;28;20519;-76
2023/06/10 10:49:51;;;;;;;6.35;5.75;;;22.50;99.90;;;;;;5052643;28;20032;-77
2023/06/10 10:52:17;;;;;;;6.40;5.63;;;23.00;99.90;;;;;;5054674;28;20053;-77
2023/06/10 10:54:46;;;;;;;6.20;5.03;;;23.30;99.90;;;;;;5055604;28;20025;-77
2023/06/10 10:57:14;;;;;;;6.40;5.57;;;23.40;99.90;;;;;;5048786;28;20032;-77
2023/06/10 10:59:48;;;;;;;5.43;4.72;;;23.30;99.90;;;;;;5047589;28;20045;-77
2023/06/10 11:02:45;;;;;;;5.55;5.05;;;23.20;99.90;;;;;;5044099;28;20052;-77
2023/06/10 11:05:16;;;;;;;5.32;4.80;;;23.00;99.90;;;;;;5052087;28;20345;-76
2023/06/10 11:07:55;;;;;;;5.68;5.00;;;23.20;99.90;;;;;;5047563;28;20034;-77
2023/06/10 11:10:30;;;;;;;6.65;5.53;;;23.40;99.90;;;;;;5030584;28;20105;-76
2023/06/10 11:12:57;;;;;;;5.90;5.30;;;23.40;99.90;;;;;;5051280;28;20029;-77
2023/06/10 11:15:31;;;;;;;6.10;5.50;;;23.80;99.90;;;;;;5047355;28;20033;-76
2023/06/10 11:18:28;;;;;;;6.05;5.13;;;23.80;99.90;;;;;;5050187;28;20274;-77
2023/06/10 11:21:02;;;;;;;6.13;4.85;;;23.80;99.90;;;;;;5051980;28;20061;-77
2023/06/10 11:23:28;;;;;;;5.32;4.82;;;24.10;99.90;;;;;;5038705;28;20028;-76
2023/06/10 11:26:12;;;;;;;4.15;3.75;;;24.30;99.90;;;;;;5054350;28;20021;-77
2023/06/10 11:28:39;;;;;;;4.95;4.38;;;24.50;99.90;;;;;;5049132;28;20021;-76
2023/06/10 11:31:05;;;;;;;4.72;4.25;;;24.70;99.90;;;;;;5052178;28;20037;-77
2023/06/10 11:33:32;;;;;;;5.28;4.72;;;24.50;99.90;;;;;;5045722;28;20126;-75
2023/06/10 11:36:01;;;;;;;7.13;4.87;;;24.00;99.90;;;;;;5052203;28;20028;-77
2023/06/10 11:38:27;;;;;;;6.15;5.45;;;23.30;99.90;;;;;;5049169;28;20120;-77
2023/06/10 11:40:53;;;;;;;5.68;5.07;;;22.90;99.90;;;;;;5041212;28;20382;-77
2023/06/10 11:43:19;;;;;;;5.72;5.03;;;22.80;99.90;;;;;;5047057;28;20043;-76
2023/06/10 11:45:45;;;;;;;7.65;4.65;;;23.00;99.90;;;;;;5051396;28;20071;-76
2023/06/10 11:48:12;;;;;;;5.35;4.78;;;23.50;99.90;;;;;;5043085;28;20041;-75
2023/06/10 11:50:37;;;;;;;5.50;5.00;;;23.40;99.90;;;;;;5049750;28;20067;-75
2023/06/10 11:53:03;;;;;;;5.35;4.85;;;23.20;99.90;;;;;;5051091;28;20029;-75
2023/06/10 11:55:46;;;;;;;5.60;5.10;;;23.10;99.90;;;;;;5035970;28;20024;-76
2023/06/10 11:58:16;;;;;;;6.70;5.15;;;23.20;99.90;;;;;;5050143;28;20044;-77
2023/06/10 12:01:01;;;;;;;5.63;5.13;;;23.40;99.90;;;;;;5051043;28;20021;-76
2023/06/10 12:03:35;;;;;;;6.20;5.10;;;24.00;99.90;;;;;;5046872;28;20033;-76
2023/06/10 12:06:06;;;;;;;10.98;5.03;;;23.80;99.90;;;;;;5052120;28;20044;-77
2023/06/10 12:08:32;;;;;;;5.72;5.22;;;23.40;99.90;;;;;;5035561;28;20033;-76
2023/06/10 12:10:58;;;;;;;6.35;5.47;;;23.00;99.90;;;;;;5053635;28;20035;-76
2023/06/10 12:13:28;;;;;;;5.38;4.60;;;23.10;99.90;;;;;;5050976;28;20025;-77
2023/06/10 12:15:54;;;;;;;6.35;5.75;;;23.30;99.90;;;;;;5047891;28;20056;-77
2023/06/10 12:18:29;;;;;;;6.65;5.93;;;23.40;99.90;;;;;;5038778;28;20084;-75
2023/06/10 12:20:54;;;;;;;8.52;6.40;;;23.60;99.90;;;;;;5044174;28;20029;-76
2023/06/10 12:23:21;;;;;;;6.30;5.70;;;23.50;99.90;;;;;;5055200;28;20033;-75
2023/06/10 12:25:57;;;;;;;7.72;6.72;;;23.10;99.90;;;;;;5051861;28;20036;-76
2023/06/10 12:28:24;;;;;;;6.18;5.57;;;22.60;99.90;;;;;;5056596;28;20175;-77
2023/06/10 12:30:50;;;;;;;6.85;6.15;;;22.60;99.90;;;;;;5042242;28;20033;-77
2023/06/10 12:33:21;;;;;;;6.95;6.25;;;22.70;99.90;;;;;;5044058;28;20053;-77
2023/06/10 12:35:53;;;;;;;8.05;6.25;;;22.60;99.90;;;;;;5016398;28;20060;-76
2023/06/10 12:38:24;;;;;;;6.65;5.30;;;22.60;99.90;;;;;;5010127;28;20049;-76
2023/06/10 12:40:50;;;;;;;6.38;5.72;;;23.00;99.90;;;;;;5017149;28;20046;-76
2023/06/10 12:43:25;;;;;;;5.55;4.82;;;23.50;99.90;;;;;;5015089;28;20034;-77
2023/06/10 12:45:51;;;;;;;7.28;6.20;;;23.70;99.90;;;;;;5014239;28;20034;-76
2023/06/10 12:48:24;;;;;;;5.75;5.18;;;24.00;99.90;;;;;;5018545;28;20029;-76